Briefing drone pour Chancelade

Rechercher une autre localisation

Conditions de vol :


Nous sommes le : Mardi 27 juillet 2021
Il est 01:27 UTC (03:27 LT)

Lever de soleil : 04:10 UTC (06:10 LT)
Coucher de soleil : 19:57 UTC (21:57 LT)

Météo

L'essentiel des conditions de vol

VIGILANCE MÉTÉO FRANCE - Dordogne (24)
Pas de vigilances particulieres
CARTE TEMSI
CARTES DES FRONTS
METAR de LFBX
LFBX 270100Z AUTO 00000KT 8000 NSC 15/14 Q1016

Date d'émission: 27/07/2021
Heure d'émission: 01:00 UTC
Vent: Calme
Visibilité horizontale: 8000 m
Plafond : Pas de nuages significatifs (NSC)
Température: 15 °C
Point de rosée: 14 °C
Humidité: 94%
Pression (QNH): 1016 hPa
Prévision 24h pour Perigueux (3 km)
Vent : 299° pour 2 KT (7 km/h)
Temperature Maxi: 16 °C
Temperature Min: 16 °C
Humidité : 85%
Condition : Partiellement nuageux



Warning: count(): Parameter must be an array or an object that implements Countable in /homepages/6/d509196549/htdocs/droneoxygene/briefing.php on line 743
WEBCAM POUR CHANCELADE

Réglementation

Voler en sécurité

CARTES AERONAUTIQUE 1/500.000
CARTES VAC (LFBX)
SUP AIP




Chargement des AIP...
NOTAM (CHANCELADE + Terrain à proximité / FIR )




Chargement des NOTAMS...
CONTACT PREFECTURE 24


Avertissement : Les données mises à disposition sont indicatives. Oxygène Drone ne pourra être tenu responsable de dégâts causés aux biens et aux personnes.